sensor_id;sensor_type;location;lat;lon;timestamp;P1;durP1;ratioP1;P2;durP2;ratioP2
6251;SDS011;3159;52.414;9.784;2023-04-25T00:00:25;9.23;;;5.10;;
6251;SDS011;3159;52.414;9.784;2023-04-25T00:02:52;11.97;;;4.70;;
6251;SDS011;3159;52.414;9.784;2023-04-25T00:05:20;8.40;;;3.83;;
6251;SDS011;3159;52.414;9.784;2023-04-25T00:07:49;13.47;;;4.63;;
6251;SDS011;3159;52.414;9.784;2023-04-25T00:10:16;11.93;;;4.57;;
6251;SDS011;3159;52.414;9.784;2023-04-25T00:12:43;11.80;;;4.90;;
6251;SDS011;3159;52.414;9.784;2023-04-25T00:15:10;9.90;;;4.07;;
6251;SDS011;3159;52.414;9.784;2023-04-25T00:17:38;14.83;;;4.83;;
6251;SDS011;3159;52.414;9.784;2023-04-25T00:20:05;8.57;;;3.80;;
6251;SDS011;3159;52.414;9.784;2023-04-25T00:22:34;11.50;;;4.10;;
6251;SDS011;3159;52.414;9.784;2023-04-25T00:25:04;9.47;;;4.50;;
6251;SDS011;3159;52.414;9.784;2023-04-25T00:27:31;10.60;;;4.60;;
6251;SDS011;3159;52.414;9.784;2023-04-25T00:29:58;11.23;;;4.60;;
6251;SDS011;3159;52.414;9.784;2023-04-25T00:32:25;14.40;;;4.70;;
6251;SDS011;3159;52.414;9.784;2023-04-25T00:34:51;8.63;;;4.23;;
6251;SDS011;3159;52.414;9.784;2023-04-25T00:37:20;10.17;;;5.00;;
6251;SDS011;3159;52.414;9.784;2023-04-25T00:39:47;11.67;;;4.40;;
6251;SDS011;3159;52.414;9.784;2023-04-25T00:42:15;10.60;;;4.50;;
6251;SDS011;3159;52.414;9.784;2023-04-25T00:44:42;13.33;;;5.00;;
6251;SDS011;3159;52.414;9.784;2023-04-25T00:47:11;8.40;;;4.67;;
6251;SDS011;3159;52.414;9.784;2023-04-25T00:49:38;12.27;;;4.40;;
6251;SDS011;3159;52.414;9.784;2023-04-25T00:52:05;10.03;;;4.93;;
6251;SDS011;3159;52.414;9.784;2023-04-25T00:54:32;7.27;;;3.90;;
6251;SDS011;3159;52.414;9.784;2023-04-25T00:56:59;9.03;;;4.77;;
6251;SDS011;3159;52.414;9.784;2023-04-25T00:59:27;10.77;;;4.40;;
6251;SDS011;3159;52.414;9.784;2023-04-25T01:01:55;12.47;;;4.53;;
6251;SDS011;3159;52.414;9.784;2023-04-25T01:04:22;9.27;;;4.20;;
6251;SDS011;3159;52.414;9.784;2023-04-25T01:06:49;9.87;;;4.97;;
6251;SDS011;3159;52.414;9.784;2023-04-25T01:09:17;9.50;;;4.53;;
6251;SDS011;3159;52.414;9.784;2023-04-25T01:11:44;9.80;;;4.73;;
6251;SDS011;3159;52.414;9.784;2023-04-25T01:14:11;12.13;;;4.83;;
6251;SDS011;3159;52.414;9.784;2023-04-25T01:16:39;9.13;;;4.13;;
6251;SDS011;3159;52.414;9.784;2023-04-25T01:19:08;13.43;;;5.43;;
6251;SDS011;3159;52.414;9.784;2023-04-25T01:21:38;10.87;;;5.00;;
6251;SDS011;3159;52.414;9.784;2023-04-25T01:24:05;11.13;;;5.17;;
6251;SDS011;3159;52.414;9.784;2023-04-25T01:26:33;8.93;;;4.40;;
6251;SDS011;3159;52.414;9.784;2023-04-25T01:29:01;13.57;;;4.77;;
6251;SDS011;3159;52.414;9.784;2023-04-25T01:31:28;12.53;;;5.27;;
6251;SDS011;3159;52.414;9.784;2023-04-25T01:33:55;8.13;;;4.30;;
6251;SDS011;3159;52.414;9.784;2023-04-25T01:36:22;13.33;;;5.43;;
6251;SDS011;3159;52.414;9.784;2023-04-25T01:38:50;9.97;;;5.17;;
6251;SDS011;3159;52.414;9.784;2023-04-25T01:41:17;8.63;;;4.77;;
6251;SDS011;3159;52.414;9.784;2023-04-25T01:43:44;9.13;;;4.90;;
6251;SDS011;3159;52.414;9.784;2023-04-25T01:46:11;11.80;;;5.10;;
6251;SDS011;3159;52.414;9.784;2023-04-25T01:48:38;12.83;;;5.50;;
6251;SDS011;3159;52.414;9.784;2023-04-25T01:51:05;12.43;;;4.93;;
6251;SDS011;3159;52.414;9.784;2023-04-25T01:53:32;11.77;;;4.40;;
6251;SDS011;3159;52.414;9.784;2023-04-25T01:56:01;12.23;;;5.10;;
6251;SDS011;3159;52.414;9.784;2023-04-25T01:58:28;13.40;;;5.00;;
6251;SDS011;3159;52.414;9.784;2023-04-25T02:00:55;14.87;;;5.53;;
6251;SDS011;3159;52.414;9.784;2023-04-25T02:03:21;11.13;;;5.87;;
6251;SDS011;3159;52.414;9.784;2023-04-25T02:05:48;12.17;;;5.03;;
6251;SDS011;3159;52.414;9.784;2023-04-25T02:08:15;9.97;;;4.97;;
6251;SDS011;3159;52.414;9.784;2023-04-25T02:10:43;9.67;;;5.27;;
6251;SDS011;3159;52.414;9.784;2023-04-25T02:13:11;11.47;;;5.80;;
6251;SDS011;3159;52.414;9.784;2023-04-25T02:15:38;11.47;;;5.33;;
6251;SDS011;3159;52.414;9.784;2023-04-25T02:18:06;10.17;;;5.23;;
6251;SDS011;3159;52.414;9.784;2023-04-25T02:20:33;11.33;;;5.30;;
6251;SDS011;3159;52.414;9.784;2023-04-25T02:23:00;12.00;;;5.90;;
6251;SDS011;3159;52.414;9.784;2023-04-25T02:25:27;10.13;;;5.27;;
6251;SDS011;3159;52.414;9.784;2023-04-25T02:27:54;12.13;;;4.50;;
6251;SDS011;3159;52.414;9.784;2023-04-25T02:30:22;8.40;;;4.73;;
6251;SDS011;3159;52.414;9.784;2023-04-25T02:32:49;9.93;;;4.27;;
6251;SDS011;3159;52.414;9.784;2023-04-25T02:35:16;10.73;;;3.70;;
6251;SDS011;3159;52.414;9.784;2023-04-25T02:37:43;8.57;;;4.60;;
6251;SDS011;3159;52.414;9.784;2023-04-25T02:40:10;10.73;;;3.70;;
6251;SDS011;3159;52.414;9.784;2023-04-25T02:42:37;8.37;;;4.07;;
6251;SDS011;3159;52.414;9.784;2023-04-25T02:45:04;6.93;;;3.50;;
6251;SDS011;3159;52.414;9.784;2023-04-25T02:47:33;17.43;;;4.07;;
6251;SDS011;3159;52.414;9.784;2023-04-25T02:49:59;10.00;;;4.13;;
6251;SDS011;3159;52.414;9.784;2023-04-25T02:52:26;13.27;;;3.80;;
6251;SDS011;3159;52.414;9.784;2023-04-25T02:54:53;10.30;;;3.53;;
6251;SDS011;3159;52.414;9.784;2023-04-25T02:57:20;11.60;;;3.83;;
6251;SDS011;3159;52.414;9.784;2023-04-25T02:59:47;12.80;;;3.77;;
6251;SDS011;3159;52.414;9.784;2023-04-25T03:02:14;9.87;;;3.90;;
6251;SDS011;3159;52.414;9.784;2023-04-25T03:04:42;14.63;;;3.60;;
6251;SDS011;3159;52.414;9.784;2023-04-25T03:07:09;9.77;;;3.13;;
6251;SDS011;3159;52.414;9.784;2023-04-25T03:09:36;16.40;;;3.57;;
6251;SDS011;3159;52.414;9.784;2023-04-25T03:12:03;14.00;;;4.03;;
6251;SDS011;3159;52.414;9.784;2023-04-25T03:14:30;17.17;;;3.70;;
6251;SDS011;3159;52.414;9.784;2023-04-25T03:16:57;16.20;;;4.07;;
6251;SDS011;3159;52.414;9.784;2023-04-25T03:19:24;7.50;;;3.13;;
6251;SDS011;3159;52.414;9.784;2023-04-25T03:21:52;13.70;;;3.80;;
6251;SDS011;3159;52.414;9.784;2023-04-25T03:24:19;16.13;;;3.90;;
6251;SDS011;3159;52.414;9.784;2023-04-25T03:26:46;13.20;;;3.30;;
6251;SDS011;3159;52.414;9.784;2023-04-25T03:29:12;11.67;;;3.23;;
6251;SDS011;3159;52.414;9.784;2023-04-25T03:31:39;13.83;;;3.80;;
6251;SDS011;3159;52.414;9.784;2023-04-25T03:34:06;15.23;;;3.60;;
6251;SDS011;3159;52.414;9.784;2023-04-25T03:36:33;14.30;;;3.80;;
6251;SDS011;3159;52.414;9.784;2023-04-25T03:39:01;16.53;;;4.10;;
6251;SDS011;3159;52.414;9.784;2023-04-25T03:41:28;16.23;;;4.07;;
6251;SDS011;3159;52.414;9.784;2023-04-25T03:43:55;13.57;;;3.50;;
6251;SDS011;3159;52.414;9.784;2023-04-25T03:46:22;15.63;;;4.03;;
6251;SDS011;3159;52.414;9.784;2023-04-25T03:48:49;14.10;;;3.73;;
6251;SDS011;3159;52.414;9.784;2023-04-25T03:51:15;12.57;;;3.70;;
6251;SDS011;3159;52.414;9.784;2023-04-25T03:53:43;15.33;;;3.87;;
6251;SDS011;3159;52.414;9.784;2023-04-25T03:56:11;10.10;;;3.27;;
6251;SDS011;3159;52.414;9.784;2023-04-25T03:58:38;14.20;;;4.63;;
6251;SDS011;3159;52.414;9.784;2023-04-25T04:01:05;12.93;;;3.77;;
6251;SDS011;3159;52.414;9.784;2023-04-25T04:03:33;13.83;;;3.77;;
6251;SDS011;3159;52.414;9.784;2023-04-25T04:06:00;20.93;;;3.90;;
6251;SDS011;3159;52.414;9.784;2023-04-25T04:08:28;14.13;;;4.07;;
6251;SDS011;3159;52.414;9.784;2023-04-25T04:10:54;25.17;;;5.10;;
6251;SDS011;3159;52.414;9.784;2023-04-25T04:13:23;13.90;;;4.00;;
6251;SDS011;3159;52.414;9.784;2023-04-25T04:15:50;12.97;;;3.77;;
6251;SDS011;3159;52.414;9.784;2023-04-25T04:18:17;18.07;;;4.77;;
6251;SDS011;3159;52.414;9.784;2023-04-25T04:20:43;13.93;;;3.40;;
6251;SDS011;3159;52.414;9.784;2023-04-25T04:23:10;11.60;;;3.90;;
6251;SDS011;3159;52.414;9.784;2023-04-25T04:25:37;13.47;;;3.80;;
6251;SDS011;3159;52.414;9.784;2023-04-25T04:28:05;20.30;;;3.93;;
6251;SDS011;3159;52.414;9.784;2023-04-25T04:30:33;16.23;;;3.90;;
6251;SDS011;3159;52.414;9.784;2023-04-25T04:33:02;18.93;;;4.30;;
6251;SDS011;3159;52.414;9.784;2023-04-25T04:35:29;15.23;;;4.03;;
6251;SDS011;3159;52.414;9.784;2023-04-25T04:37:56;17.27;;;3.70;;
6251;SDS011;3159;52.414;9.784;2023-04-25T04:40:23;18.20;;;4.70;;
6251;SDS011;3159;52.414;9.784;2023-04-25T04:42:50;21.07;;;3.77;;
6251;SDS011;3159;52.414;9.784;2023-04-25T04:45:18;15.17;;;3.53;;
6251;SDS011;3159;52.414;9.784;2023-04-25T04:47:47;14.37;;;4.00;;
6251;SDS011;3159;52.414;9.784;2023-04-25T04:50:14;14.00;;;3.47;;
6251;SDS011;3159;52.414;9.784;2023-04-25T04:52:41;15.30;;;4.13;;
6251;SDS011;3159;52.414;9.784;2023-04-25T04:55:09;13.43;;;3.77;;
6251;SDS011;3159;52.414;9.784;2023-04-25T04:57:35;15.30;;;3.90;;
6251;SDS011;3159;52.414;9.784;2023-04-25T05:00:04;20.50;;;4.27;;
6251;SDS011;3159;52.414;9.784;2023-04-25T05:02:36;18.50;;;4.07;;
6251;SDS011;3159;52.414;9.784;2023-04-25T05:05:05;13.30;;;3.60;;
6251;SDS011;3159;52.414;9.784;2023-04-25T05:07:32;14.80;;;3.87;;
6251;SDS011;3159;52.414;9.784;2023-04-25T05:09:59;18.50;;;3.90;;
6251;SDS011;3159;52.414;9.784;2023-04-25T05:12:26;18.17;;;3.77;;
6251;SDS011;3159;52.414;9.784;2023-04-25T05:14:53;12.23;;;4.00;;
6251;SDS011;3159;52.414;9.784;2023-04-25T05:17:20;20.57;;;4.33;;
6251;SDS011;3159;52.414;9.784;2023-04-25T05:19:47;13.10;;;4.07;;
6251;SDS011;3159;52.414;9.784;2023-04-25T05:22:15;14.60;;;3.67;;
6251;SDS011;3159;52.414;9.784;2023-04-25T05:24:42;16.27;;;4.20;;
6251;SDS011;3159;52.414;9.784;2023-04-25T05:27:09;15.50;;;3.80;;
6251;SDS011;3159;52.414;9.784;2023-04-25T05:29:36;15.17;;;4.13;;
6251;SDS011;3159;52.414;9.784;2023-04-25T05:32:03;18.07;;;3.73;;
6251;SDS011;3159;52.414;9.784;2023-04-25T05:34:31;15.73;;;4.30;;
6251;SDS011;3159;52.414;9.784;2023-04-25T05:36:58;13.97;;;3.80;;
6251;SDS011;3159;52.414;9.784;2023-04-25T05:39:26;18.80;;;3.97;;
6251;SDS011;3159;52.414;9.784;2023-04-25T05:41:53;14.47;;;3.70;;
6251;SDS011;3159;52.414;9.784;2023-04-25T05:44:20;17.30;;;4.20;;
6251;SDS011;3159;52.414;9.784;2023-04-25T05:46:47;16.43;;;3.97;;
6251;SDS011;3159;52.414;9.784;2023-04-25T05:49:14;18.17;;;3.80;;
6251;SDS011;3159;52.414;9.784;2023-04-25T05:51:41;15.83;;;4.53;;
6251;SDS011;3159;52.414;9.784;2023-04-25T05:54:07;11.77;;;3.27;;
6251;SDS011;3159;52.414;9.784;2023-04-25T05:56:36;13.57;;;3.97;;
6251;SDS011;3159;52.414;9.784;2023-04-25T05:59:03;14.57;;;3.40;;
6251;SDS011;3159;52.414;9.784;2023-04-25T06:01:30;15.03;;;3.20;;
6251;SDS011;3159;52.414;9.784;2023-04-25T06:03:56;12.00;;;3.20;;
6251;SDS011;3159;52.414;9.784;2023-04-25T06:06:23;13.60;;;3.57;;
6251;SDS011;3159;52.414;9.784;2023-04-25T06:08:50;9.77;;;2.93;;
6251;SDS011;3159;52.414;9.784;2023-04-25T06:11:17;15.77;;;3.80;;
6251;SDS011;3159;52.414;9.784;2023-04-25T06:13:46;13.37;;;3.40;;
6251;SDS011;3159;52.414;9.784;2023-04-25T06:16:13;9.67;;;3.47;;
6251;SDS011;3159;52.414;9.784;2023-04-25T06:18:40;13.20;;;3.80;;
6251;SDS011;3159;52.414;9.784;2023-04-25T06:21:07;11.23;;;3.03;;
6251;SDS011;3159;52.414;9.784;2023-04-25T06:23:34;16.27;;;3.77;;
6251;SDS011;3159;52.414;9.784;2023-04-25T06:26:01;14.23;;;3.37;;
6251;SDS011;3159;52.414;9.784;2023-04-25T06:28:28;9.17;;;3.10;;
6251;SDS011;3159;52.414;9.784;2023-04-25T06:30:56;15.47;;;3.13;;
6251;SDS011;3159;52.414;9.784;2023-04-25T06:33:23;12.97;;;3.70;;
6251;SDS011;3159;52.414;9.784;2023-04-25T06:35:50;20.30;;;4.10;;
6251;SDS011;3159;52.414;9.784;2023-04-25T06:38:17;15.40;;;3.20;;
6251;SDS011;3159;52.414;9.784;2023-04-25T06:40:43;9.23;;;3.30;;
6251;SDS011;3159;52.414;9.784;2023-04-25T06:43:10;12.13;;;3.50;;
6251;SDS011;3159;52.414;9.784;2023-04-25T06:45:37;10.57;;;3.60;;
6251;SDS011;3159;52.414;9.784;2023-04-25T06:48:05;12.60;;;3.53;;
6251;SDS011;3159;52.414;9.784;2023-04-25T06:50:33;12.67;;;3.57;;
6251;SDS011;3159;52.414;9.784;2023-04-25T06:53:00;16.43;;;3.67;;
6251;SDS011;3159;52.414;9.784;2023-04-25T06:55:27;15.03;;;3.30;;
6251;SDS011;3159;52.414;9.784;2023-04-25T06:57:54;10.27;;;2.53;;
6251;SDS011;3159;52.414;9.784;2023-04-25T07:00:21;15.90;;;3.07;;
6251;SDS011;3159;52.414;9.784;2023-04-25T07:02:48;8.47;;;2.87;;
6251;SDS011;3159;52.414;9.784;2023-04-25T07:05:16;11.60;;;3.30;;
6251;SDS011;3159;52.414;9.784;2023-04-25T07:07:43;7.50;;;2.90;;
6251;SDS011;3159;52.414;9.784;2023-04-25T07:10:10;10.70;;;2.77;;
6251;SDS011;3159;52.414;9.784;2023-04-25T07:12:37;13.50;;;2.90;;
6251;SDS011;3159;52.414;9.784;2023-04-25T07:15:04;15.63;;;4.00;;
6251;SDS011;3159;52.414;9.784;2023-04-25T07:17:35;14.53;;;3.77;;
6251;SDS011;3159;52.414;9.784;2023-04-25T07:20:01;13.40;;;3.17;;
6251;SDS011;3159;52.414;9.784;2023-04-25T07:22:32;9.30;;;3.20;;
6251;SDS011;3159;52.414;9.784;2023-04-25T07:24:59;11.90;;;3.17;;
6251;SDS011;3159;52.414;9.784;2023-04-25T07:27:25;8.27;;;2.33;;
6251;SDS011;3159;52.414;9.784;2023-04-25T07:29:52;17.90;;;3.13;;
6251;SDS011;3159;52.414;9.784;2023-04-25T07:32:21;9.80;;;3.07;;
6251;SDS011;3159;52.414;9.784;2023-04-25T07:34:48;9.40;;;2.70;;
6251;SDS011;3159;52.414;9.784;2023-04-25T07:37:16;16.10;;;3.10;;
6251;SDS011;3159;52.414;9.784;2023-04-25T07:39:45;9.23;;;2.67;;
6251;SDS011;3159;52.414;9.784;2023-04-25T07:42:12;11.27;;;2.77;;
6251;SDS011;3159;52.414;9.784;2023-04-25T07:44:39;9.73;;;2.73;;
6251;SDS011;3159;52.414;9.784;2023-04-25T07:47:07;7.90;;;2.57;;
6251;SDS011;3159;52.414;9.784;2023-04-25T07:49:35;8.63;;;2.80;;
6251;SDS011;3159;52.414;9.784;2023-04-25T07:52:03;12.40;;;3.10;;
6251;SDS011;3159;52.414;9.784;2023-04-25T07:54:31;10.07;;;2.90;;
6251;SDS011;3159;52.414;9.784;2023-04-25T07:56:59;10.73;;;2.50;;
6251;SDS011;3159;52.414;9.784;2023-04-25T07:59:27;11.43;;;3.10;;
6251;SDS011;3159;52.414;9.784;2023-04-25T08:01:54;12.87;;;2.63;;
6251;SDS011;3159;52.414;9.784;2023-04-25T08:04:22;9.57;;;2.27;;
6251;SDS011;3159;52.414;9.784;2023-04-25T08:06:50;10.47;;;2.60;;
6251;SDS011;3159;52.414;9.784;2023-04-25T08:09:17;7.53;;;2.00;;
6251;SDS011;3159;52.414;9.784;2023-04-25T08:11:44;8.17;;;2.17;;
6251;SDS011;3159;52.414;9.784;2023-04-25T08:14:12;6.97;;;1.97;;
6251;SDS011;3159;52.414;9.784;2023-04-25T08:16:39;9.20;;;2.50;;
6251;SDS011;3159;52.414;9.784;2023-04-25T08:19:07;12.93;;;2.30;;
6251;SDS011;3159;52.414;9.784;2023-04-25T08:21:33;7.70;;;2.40;;
6251;SDS011;3159;52.414;9.784;2023-04-25T08:24:00;10.83;;;2.53;;
6251;SDS011;3159;52.414;9.784;2023-04-25T08:26:27;7.27;;;2.07;;
6251;SDS011;3159;52.414;9.784;2023-04-25T08:28:54;7.33;;;2.07;;
6251;SDS011;3159;52.414;9.784;2023-04-25T08:31:22;8.20;;;2.30;;
6251;SDS011;3159;52.414;9.784;2023-04-25T08:33:49;6.43;;;2.00;;
6251;SDS011;3159;52.414;9.784;2023-04-25T08:36:16;8.10;;;1.90;;
6251;SDS011;3159;52.414;9.784;2023-04-25T08:38:43;8.77;;;1.87;;
6251;SDS011;3159;52.414;9.784;2023-04-25T08:41:11;9.43;;;2.37;;
6251;SDS011;3159;52.414;9.784;2023-04-25T08:43:39;11.97;;;2.57;;
6251;SDS011;3159;52.414;9.784;2023-04-25T08:46:09;8.20;;;1.80;;
6251;SDS011;3159;52.414;9.784;2023-04-25T08:48:38;11.77;;;2.30;;
6251;SDS011;3159;52.414;9.784;2023-04-25T08:51:08;7.40;;;2.33;;
6251;SDS011;3159;52.414;9.784;2023-04-25T08:53:41;8.93;;;2.57;;
6251;SDS011;3159;52.414;9.784;2023-04-25T08:56:09;7.33;;;2.50;;
6251;SDS011;3159;52.414;9.784;2023-04-25T08:58:39;6.87;;;2.20;;
6251;SDS011;3159;52.414;9.784;2023-04-25T09:01:06;7.30;;;2.07;;
6251;SDS011;3159;52.414;9.784;2023-04-25T09:03:33;7.00;;;2.20;;
6251;SDS011;3159;52.414;9.784;2023-04-25T09:06:02;8.00;;;2.30;;
6251;SDS011;3159;52.414;9.784;2023-04-25T09:08:30;7.87;;;1.80;;
6251;SDS011;3159;52.414;9.784;2023-04-25T09:10:56;4.77;;;1.47;;
6251;SDS011;3159;52.414;9.784;2023-04-25T09:13:24;7.53;;;2.07;;
6251;SDS011;3159;52.414;9.784;2023-04-25T09:15:52;7.73;;;1.90;;
6251;SDS011;3159;52.414;9.784;2023-04-25T09:18:23;4.77;;;1.73;;
6251;SDS011;3159;52.414;9.784;2023-04-25T09:20:51;11.37;;;2.20;;
6251;SDS011;3159;52.414;9.784;2023-04-25T09:23:20;5.27;;;2.07;;
6251;SDS011;3159;52.414;9.784;2023-04-25T09:25:48;4.57;;;1.50;;
6251;SDS011;3159;52.414;9.784;2023-04-25T09:28:17;3.47;;;1.77;;
6251;SDS011;3159;52.414;9.784;2023-04-25T09:30:50;4.67;;;1.70;;
6251;SDS011;3159;52.414;9.784;2023-04-25T09:33:22;5.57;;;1.67;;
6251;SDS011;3159;52.414;9.784;2023-04-25T09:35:56;5.53;;;1.50;;
6251;SDS011;3159;52.414;9.784;2023-04-25T09:38:31;4.70;;;1.33;;
6251;SDS011;3159;52.414;9.784;2023-04-25T09:40:59;5.33;;;1.50;;
6251;SDS011;3159;52.414;9.784;2023-04-25T09:43:26;3.20;;;1.27;;
6251;SDS011;3159;52.414;9.784;2023-04-25T09:45:54;4.10;;;1.30;;
6251;SDS011;3159;52.414;9.784;2023-04-25T09:48:25;5.47;;;1.40;;
6251;SDS011;3159;52.414;9.784;2023-04-25T09:51:05;2.07;;;1.00;;
6251;SDS011;3159;52.414;9.784;2023-04-25T09:53:35;3.20;;;1.30;;
6251;SDS011;3159;52.414;9.784;2023-04-25T09:56:03;5.77;;;1.60;;
6251;SDS011;3159;52.414;9.784;2023-04-25T09:58:32;5.07;;;1.70;;
6251;SDS011;3159;52.414;9.784;2023-04-25T10:01:01;4.03;;;1.53;;
6251;SDS011;3159;52.414;9.784;2023-04-25T10:03:29;4.00;;;1.30;;
6251;SDS011;3159;52.414;9.784;2023-04-25T10:05:57;7.67;;;1.70;;
6251;SDS011;3159;52.414;9.784;2023-04-25T10:08:27;5.63;;;1.93;;
6251;SDS011;3159;52.414;9.784;2023-04-25T10:10:59;4.80;;;1.10;;
6251;SDS011;3159;52.414;9.784;2023-04-25T10:13:28;3.87;;;1.47;;
6251;SDS011;3159;52.414;9.784;2023-04-25T10:15:56;3.57;;;1.30;;
6251;SDS011;3159;52.414;9.784;2023-04-25T10:18:24;4.37;;;1.30;;
6251;SDS011;3159;52.414;9.784;2023-04-25T10:20:52;4.37;;;1.90;;
6251;SDS011;3159;52.414;9.784;2023-04-25T10:23:20;6.40;;;1.77;;
6251;SDS011;3159;52.414;9.784;2023-04-25T10:25:47;6.63;;;1.63;;
6251;SDS011;3159;52.414;9.784;2023-04-25T10:28:17;3.17;;;1.40;;
6251;SDS011;3159;52.414;9.784;2023-04-25T10:30:57;2.80;;;1.47;;
6251;SDS011;3159;52.414;9.784;2023-04-25T10:33:34;7.83;;;1.63;;
6251;SDS011;3159;52.414;9.784;2023-04-25T10:36:09;6.13;;;1.77;;
6251;SDS011;3159;52.414;9.784;2023-04-25T10:38:37;6.33;;;1.80;;
6251;SDS011;3159;52.414;9.784;2023-04-25T10:41:05;6.43;;;1.70;;
6251;SDS011;3159;52.414;9.784;2023-04-25T10:43:35;7.00;;;1.50;;
6251;SDS011;3159;52.414;9.784;2023-04-25T10:46:16;5.40;;;1.47;;
6251;SDS011;3159;52.414;9.784;2023-04-25T10:48:45;4.93;;;1.40;;
6251;SDS011;3159;52.414;9.784;2023-04-25T10:51:16;6.47;;;1.97;;
6251;SDS011;3159;52.414;9.784;2023-04-25T10:53:56;4.60;;;1.50;;
6251;SDS011;3159;52.414;9.784;2023-04-25T10:56:25;3.93;;;1.33;;
6251;SDS011;3159;52.414;9.784;2023-04-25T10:59:04;6.43;;;1.80;;
6251;SDS011;3159;52.414;9.784;2023-04-25T11:01:35;5.03;;;1.87;;
6251;SDS011;3159;52.414;9.784;2023-04-25T11:04:20;3.50;;;1.37;;
6251;SDS011;3159;52.414;9.784;2023-04-25T11:06:51;5.37;;;1.80;;
6251;SDS011;3159;52.414;9.784;2023-04-25T11:09:28;7.03;;;1.47;;
6251;SDS011;3159;52.414;9.784;2023-04-25T11:11:56;4.93;;;1.50;;
6251;SDS011;3159;52.414;9.784;2023-04-25T11:14:25;4.73;;;1.40;;
6251;SDS011;3159;52.414;9.784;2023-04-25T11:16:52;3.93;;;1.37;;
6251;SDS011;3159;52.414;9.784;2023-04-25T11:19:20;7.33;;;1.13;;
6251;SDS011;3159;52.414;9.784;2023-04-25T11:21:48;3.03;;;1.00;;
6251;SDS011;3159;52.414;9.784;2023-04-25T11:24:15;2.70;;;0.83;;
6251;SDS011;3159;52.414;9.784;2023-04-25T11:26:43;3.33;;;1.30;;
6251;SDS011;3159;52.414;9.784;2023-04-25T11:29:12;4.67;;;1.27;;
6251;SDS011;3159;52.414;9.784;2023-04-25T11:31:44;3.97;;;1.30;;
6251;SDS011;3159;52.414;9.784;2023-04-25T11:34:11;2.17;;;1.23;;
6251;SDS011;3159;52.414;9.784;2023-04-25T11:36:42;6.53;;;1.47;;
6251;SDS011;3159;52.414;9.784;2023-04-25T11:39:10;4.00;;;1.07;;
6251;SDS011;3159;52.414;9.784;2023-04-25T11:41:37;4.33;;;1.43;;
6251;SDS011;3159;52.414;9.784;2023-04-25T11:44:04;3.77;;;1.57;;
6251;SDS011;3159;52.414;9.784;2023-04-25T11:46:33;3.33;;;1.30;;
6251;SDS011;3159;52.414;9.784;2023-04-25T11:49:02;3.97;;;1.10;;
6251;SDS011;3159;52.414;9.784;2023-04-25T11:51:29;4.57;;;1.30;;
6251;SDS011;3159;52.414;9.784;2023-04-25T11:53:56;5.17;;;1.60;;
6251;SDS011;3159;52.414;9.784;2023-04-25T11:56:23;2.83;;;1.60;;
6251;SDS011;3159;52.414;9.784;2023-04-25T11:58:53;5.47;;;1.77;;
6251;SDS011;3159;52.414;9.784;2023-04-25T12:01:25;8.77;;;1.97;;
6251;SDS011;3159;52.414;9.784;2023-04-25T12:03:52;5.90;;;2.00;;
6251;SDS011;3159;52.414;9.784;2023-04-25T12:06:21;9.47;;;1.70;;
6251;SDS011;3159;52.414;9.784;2023-04-25T12:09:01;7.47;;;1.93;;
6251;SDS011;3159;52.414;9.784;2023-04-25T12:11:29;5.27;;;1.73;;
6251;SDS011;3159;52.414;9.784;2023-04-25T12:14:01;3.73;;;1.47;;
6251;SDS011;3159;52.414;9.784;2023-04-25T12:16:28;4.37;;;1.47;;
6251;SDS011;3159;52.414;9.784;2023-04-25T12:18:56;4.80;;;1.10;;
6251;SDS011;3159;52.414;9.784;2023-04-25T12:21:29;1.83;;;0.87;;
6251;SDS011;3159;52.414;9.784;2023-04-25T12:24:07;1.37;;;0.90;;
6251;SDS011;3159;52.414;9.784;2023-04-25T12:26:45;1.90;;;0.90;;
6251;SDS011;3159;52.414;9.784;2023-04-25T12:29:17;3.27;;;0.93;;
6251;SDS011;3159;52.414;9.784;2023-04-25T12:31:44;2.60;;;0.90;;
6251;SDS011;3159;52.414;9.784;2023-04-25T12:34:11;3.57;;;1.07;;
6251;SDS011;3159;52.414;9.784;2023-04-25T12:36:39;6.57;;;1.00;;
6251;SDS011;3159;52.414;9.784;2023-04-25T12:39:06;4.47;;;1.30;;
6251;SDS011;3159;52.414;9.784;2023-04-25T12:41:33;5.33;;;1.40;;
6251;SDS011;3159;52.414;9.784;2023-04-25T12:44:00;6.93;;;1.83;;
6251;SDS011;3159;52.414;9.784;2023-04-25T12:46:27;1.87;;;1.10;;
6251;SDS011;3159;52.414;9.784;2023-04-25T12:48:54;2.10;;;0.77;;
6251;SDS011;3159;52.414;9.784;2023-04-25T12:51:21;1.60;;;0.80;;
6251;SDS011;3159;52.414;9.784;2023-04-25T12:53:51;2.40;;;0.70;;
6251;SDS011;3159;52.414;9.784;2023-04-25T12:56:18;2.10;;;0.73;;
6251;SDS011;3159;52.414;9.784;2023-04-25T12:58:46;2.37;;;0.70;;
6251;SDS011;3159;52.414;9.784;2023-04-25T13:01:13;1.47;;;0.77;;
6251;SDS011;3159;52.414;9.784;2023-04-25T13:03:40;4.47;;;0.70;;
6251;SDS011;3159;52.414;9.784;2023-04-25T13:06:07;2.17;;;0.77;;
6251;SDS011;3159;52.414;9.784;2023-04-25T13:08:34;2.87;;;0.70;;
6251;SDS011;3159;52.414;9.784;2023-04-25T13:11:03;2.90;;;0.97;;
6251;SDS011;3159;52.414;9.784;2023-04-25T13:13:30;1.47;;;0.80;;
6251;SDS011;3159;52.414;9.784;2023-04-25T13:15:59;3.83;;;0.90;;
6251;SDS011;3159;52.414;9.784;2023-04-25T13:18:26;2.83;;;1.20;;
6251;SDS011;3159;52.414;9.784;2023-04-25T13:20:53;3.93;;;1.07;;
6251;SDS011;3159;52.414;9.784;2023-04-25T13:23:20;4.07;;;0.97;;
6251;SDS011;3159;52.414;9.784;2023-04-25T13:25:48;3.93;;;1.17;;
6251;SDS011;3159;52.414;9.784;2023-04-25T13:28:16;2.63;;;1.00;;
6251;SDS011;3159;52.414;9.784;2023-04-25T13:30:43;2.30;;;0.87;;
6251;SDS011;3159;52.414;9.784;2023-04-25T13:33:10;4.00;;;1.07;;
6251;SDS011;3159;52.414;9.784;2023-04-25T13:35:38;4.63;;;1.10;;
6251;SDS011;3159;52.414;9.784;2023-04-25T13:38:06;2.53;;;1.20;;
6251;SDS011;3159;52.414;9.784;2023-04-25T13:40:35;2.47;;;0.90;;
6251;SDS011;3159;52.414;9.784;2023-04-25T13:43:02;2.60;;;1.20;;
6251;SDS011;3159;52.414;9.784;2023-04-25T13:45:32;4.30;;;1.70;;
6251;SDS011;3159;52.414;9.784;2023-04-25T13:47:59;4.67;;;1.47;;
6251;SDS011;3159;52.414;9.784;2023-04-25T13:50:26;4.73;;;1.60;;
6251;SDS011;3159;52.414;9.784;2023-04-25T13:52:53;5.53;;;1.30;;
6251;SDS011;3159;52.414;9.784;2023-04-25T13:55:20;7.67;;;1.77;;
6251;SDS011;3159;52.414;9.784;2023-04-25T13:57:47;2.37;;;1.30;;
6251;SDS011;3159;52.414;9.784;2023-04-25T14:00:14;1.93;;;1.27;;
6251;SDS011;3159;52.414;9.784;2023-04-25T14:02:50;2.93;;;1.10;;
6251;SDS011;3159;52.414;9.784;2023-04-25T14:05:18;3.83;;;1.10;;
6251;SDS011;3159;52.414;9.784;2023-04-25T14:07:45;3.30;;;1.00;;
6251;SDS011;3159;52.414;9.784;2023-04-25T14:10:12;3.30;;;1.00;;
6251;SDS011;3159;52.414;9.784;2023-04-25T14:12:40;1.93;;;0.97;;
6251;SDS011;3159;52.414;9.784;2023-04-25T14:15:10;2.13;;;0.90;;
6251;SDS011;3159;52.414;9.784;2023-04-25T14:17:37;2.53;;;1.13;;
6251;SDS011;3159;52.414;9.784;2023-04-25T14:20:08;1.33;;;0.90;;
6251;SDS011;3159;52.414;9.784;2023-04-25T14:22:36;4.63;;;1.10;;
6251;SDS011;3159;52.414;9.784;2023-04-25T14:25:06;1.20;;;0.70;;
6251;SDS011;3159;52.414;9.784;2023-04-25T14:27:34;0.97;;;0.80;;
6251;SDS011;3159;52.414;9.784;2023-04-25T14:30:02;2.90;;;1.20;;
6251;SDS011;3159;52.414;9.784;2023-04-25T14:32:30;1.90;;;0.83;;
6251;SDS011;3159;52.414;9.784;2023-04-25T14:34:57;4.07;;;0.93;;
6251;SDS011;3159;52.414;9.784;2023-04-25T14:37:25;2.13;;;1.10;;
6251;SDS011;3159;52.414;9.784;2023-04-25T14:39:52;2.80;;;0.90;;
6251;SDS011;3159;52.414;9.784;2023-04-25T14:42:20;1.60;;;1.03;;
6251;SDS011;3159;52.414;9.784;2023-04-25T14:44:47;2.70;;;1.13;;
6251;SDS011;3159;52.414;9.784;2023-04-25T14:47:14;4.50;;;1.30;;
6251;SDS011;3159;52.414;9.784;2023-04-25T14:49:41;5.47;;;1.23;;
6251;SDS011;3159;52.414;9.784;2023-04-25T14:52:11;3.90;;;1.30;;
6251;SDS011;3159;52.414;9.784;2023-04-25T14:54:40;2.87;;;1.20;;
6251;SDS011;3159;52.414;9.784;2023-04-25T14:57:06;3.77;;;1.30;;
6251;SDS011;3159;52.414;9.784;2023-04-25T14:59:33;4.57;;;1.23;;
6251;SDS011;3159;52.414;9.784;2023-04-25T15:02:00;2.37;;;1.30;;
6251;SDS011;3159;52.414;9.784;2023-04-25T15:04:28;3.97;;;1.80;;
6251;SDS011;3159;52.414;9.784;2023-04-25T15:06:55;3.73;;;1.40;;
6251;SDS011;3159;52.414;9.784;2023-04-25T15:09:24;3.90;;;1.80;;
6251;SDS011;3159;52.414;9.784;2023-04-25T15:11:52;5.23;;;1.80;;
6251;SDS011;3159;52.414;9.784;2023-04-25T15:14:19;3.40;;;1.80;;